Time;durP1;ratioP1;P1;durP2;ratioP2;P2;SDS_P1;SDS_P2;PMS_P1;PMS_P2;Temp;Humidity;BMP_temperature;BMP_pressure;BME280_temperature;BME280_humidity;BME280_pressure;Samples;Min_cycle;Max_cycle;Signal;HPM_P1;HPM_P2
2021/12/17 00:00:45;;;;;;;12.07;9.03;;;;;;;2.10;69.82;95625.13;5120027;28;20294;-63
2021/12/17 00:03:18;;;;;;;11.50;9.93;;;;;;;2.10;69.69;95638.09;5120416;28;20215;-64
2021/12/17 00:08:14;;;;;;;10.93;9.80;;;;;;;1.99;70.29;95635.25;5121221;28;20272;-63
2021/12/17 00:10:40;;;;;;;11.00;8.97;;;;;;;2.12;70.00;95645.81;5117915;28;20227;-63
2021/12/17 00:13:06;;;;;;;9.90;8.70;;;;;;;2.08;70.01;95644.28;5122467;28;20223;-64
2021/12/17 00:15:31;;;;;;;10.90;9.57;;;;;;;2.09;70.27;95644.22;5119560;28;20219;-63
2021/12/17 00:18:04;;;;;;;9.70;8.70;;;;;;;2.12;69.80;95641.44;5118735;27;20267;-64
2021/12/17 00:20:51;;;;;;;10.47;8.73;;;;;;;2.17;69.23;95636.84;5120379;27;20203;-63
2021/12/17 00:53:25;;;;;;;8.87;7.97;;;;;;;2.11;68.78;95649.28;5058736;28;20239;-64
2021/12/17 00:55:52;;;;;;;9.17;7.87;;;;;;;2.16;68.21;95636.91;5041637;28;20279;-63
2021/12/17 00:58:17;;;;;;;9.50;7.43;;;;;;;2.17;67.91;95642.03;5043420;28;20209;-62
2021/12/17 01:00:43;;;;;;;8.57;7.20;;;;;;;2.18;67.83;95632.47;5059518;28;20227;-65
2021/12/17 01:03:09;;;;;;;7.20;6.50;;;;;;;2.28;67.25;95640.59;5043940;28;20239;-63
2021/12/17 01:05:34;;;;;;;7.77;6.97;;;;;;;2.27;67.06;95633.72;5041169;28;20220;-67
2021/12/17 01:08:03;;;;;;;8.50;7.50;;;;;;;2.29;66.92;95639.66;5041357;28;20213;-63
2021/12/17 01:10:36;;;;;;;8.07;6.93;;;;;;;2.28;67.22;95632.81;5040099;28;20256;-63
2021/12/17 01:13:04;;;;;;;7.83;6.60;;;;;;;2.26;66.46;95624.28;5041895;28;20278;-63
2021/12/17 01:15:30;;;;;;;7.23;6.33;;;;;;;2.26;66.16;95629.47;5041233;28;20248;-63
2021/12/17 01:18:03;;;;;;;7.27;6.40;;;;;;;2.20;66.59;95628.88;5058410;28;20320;-64
2021/12/17 01:36:25;;;;;;;6.43;5.47;;;;;;;2.37;63.57;95603.72;5121717;28;20264;-65
2021/12/17 01:44:12;;;;;;;5.07;4.57;;;;;;;2.40;63.36;95585.38;5121479;28;20203;-63
2021/12/17 01:46:39;;;;;;;5.10;4.60;;;;;;;2.40;63.01;95585.38;5118961;28;20216;-63
2021/12/17 01:59:50;;;;;;;6.53;5.43;;;;;;;2.28;63.49;95579.16;5119005;28;20233;-63
2021/12/17 02:02:16;;;;;;;5.43;4.80;;;;;;;2.33;63.03;95584.09;5120051;28;20208;-63
2021/12/17 02:04:43;;;;;;;5.63;4.60;;;;;;;2.32;63.23;95592.78;5123737;28;20270;-63
2021/12/17 02:07:09;;;;;;;6.10;4.67;;;;;;;2.31;63.07;95593.72;5121654;28;20231;-63
2021/12/17 02:10:08;;;;;;;5.93;4.70;;;;;;;2.34;63.19;95598.72;5121698;28;20230;-63
2021/12/17 02:12:54;;;;;;;5.10;4.57;;;;;;;2.41;63.08;95605.25;5122613;28;20230;-63
2021/12/17 02:33:54;;;;;;;4.83;4.30;;;;;;;2.38;63.38;95575.09;5122647;28;20215;-65
2021/12/17 02:36:24;;;;;;;4.63;3.97;;;;;;;2.37;63.57;95570.00;5121360;28;20233;-64
2021/12/17 02:38:50;;;;;;;4.57;4.17;;;;;;;2.52;63.10;95589.03;5121376;28;20227;-64
2021/12/17 02:46:44;;;;;;;5.23;4.73;;;;;;;2.54;63.06;95569.88;5120950;28;20244;-63
2021/12/17 02:49:10;;;;;;;5.93;4.83;;;;;;;2.50;63.21;95573.56;5117133;28;20216;-63
2021/12/17 02:51:35;;;;;;;5.30;4.80;;;;;;;2.52;63.46;95574.31;5120517;28;20243;-64
2021/12/17 02:54:01;;;;;;;5.57;4.60;;;;;;;2.55;63.48;95579.31;5120818;28;20270;-64
2021/12/17 02:56:27;;;;;;;6.63;4.93;;;;;;;2.52;63.53;95578.66;5122386;28;20214;-66
2021/12/17 02:58:54;;;;;;;5.60;5.00;;;;;;;2.53;63.67;95575.97;5121384;28;20200;-63
2021/12/17 03:01:20;;;;;;;5.40;4.90;;;;;;;2.69;63.21;95582.88;5122842;28;20217;-65
2021/12/17 03:03:49;;;;;;;4.93;4.43;;;;;;;2.63;63.50;95576.28;5123892;28;20212;-64
2021/12/17 03:06:15;;;;;;;5.40;4.87;;;;;;;2.60;63.92;95584.25;5133909;27;20232;-62
2021/12/17 03:08:41;;;;;;;6.00;5.40;;;;;;;2.63;63.67;95590.09;5120903;27;20195;-65
2021/12/17 03:11:06;;;;;;;5.50;5.00;;;;;;;2.62;63.90;95580.63;5144737;27;20211;-64
2021/12/17 03:13:35;;;;;;;6.67;5.60;;;;;;;2.71;64.05;95578.44;5121671;28;20215;-64
2021/12/17 03:16:09;;;;;;;6.33;5.50;;;;;;;2.59;64.54;95585.16;5122601;28;20227;-62
2021/12/17 03:24:07;;;;;;;6.33;5.73;;;;;;;2.66;65.06;95581.28;5118844;28;20241;-66
2021/12/17 03:26:34;;;;;;;6.93;6.23;;;;;;;2.73;65.85;95580.00;5101908;28;20234;-64
2021/12/17 03:29:02;;;;;;;7.37;6.50;;;;;;;2.62;66.27;95575.44;5103246;28;20277;-64
2021/12/17 03:31:28;;;;;;;7.23;6.53;;;;;;;2.65;67.04;95570.06;5117539;28;20240;-66
2021/12/17 03:34:03;;;;;;;8.43;7.07;;;;;;;2.59;67.60;95565.25;5100525;28;20255;-63
2021/12/17 03:36:29;;;;;;;7.80;7.00;;;;;;;2.64;68.18;95573.56;5101926;28;20212;-64
2021/12/17 03:38:55;;;;;;;10.53;7.60;;;;;;;2.64;68.75;95573.56;5102767;28;20249;-66
2021/12/17 03:41:24;;;;;;;9.50;8.30;;;;;;;2.65;68.86;95564.03;5117397;27;20217;-65
2021/12/17 03:43:54;;;;;;;10.53;8.57;;;;;;;2.71;69.30;95568.03;5100234;28;20362;-63
2021/12/17 03:46:21;;;;;;;9.57;8.57;;;;;;;2.65;68.84;95554.50;5100751;28;20226;-63
2021/12/17 03:48:47;;;;;;;9.37;7.70;;;;;;;2.69;68.65;95556.91;5118149;28;20297;-64
2021/12/17 03:51:17;;;;;;;8.00;7.20;;;;;;;2.67;68.86;95563.94;5097349;28;20262;-65
2021/12/17 03:53:52;;;;;;;9.23;8.23;;;;;;;2.72;68.48;95554.94;5117035;28;20230;-65
2021/12/17 03:56:19;;;;;;;7.90;7.20;;;;;;;2.73;68.56;95555.81;5117433;28;20226;-64
2021/12/17 03:58:45;;;;;;;8.30;6.63;;;;;;;2.69;68.73;95554.31;5122210;28;20211;-65
2021/12/17 04:01:10;;;;;;;7.30;6.60;;;;;;;2.78;69.44;95558.94;5121175;28;20231;-65
2021/12/17 04:03:36;;;;;;;6.20;5.60;;;;;;;2.69;70.22;95555.13;5119901;28;20223;-64
2021/12/17 04:06:02;;;;;;;7.13;6.43;;;;;;;2.60;70.41;95547.91;5119552;28;20227;-65
2021/12/17 04:08:28;;;;;;;7.80;6.80;;;;;;;2.56;70.90;95543.78;5121192;28;20276;-63
2021/12/17 04:11:01;;;;;;;6.93;6.23;;;;;;;2.55;71.33;95540.38;5120311;28;20219;-63
2021/12/17 04:13:30;;;;;;;7.40;6.70;;;;;;;2.56;71.48;95539.44;5117505;28;20219;-65
2021/12/17 04:16:05;;;;;;;6.83;6.13;;;;;;;2.62;71.84;95546.06;5120137;28;20253;-67
2021/12/17 04:18:32;;;;;;;7.33;6.60;;;;;;;2.63;72.11;95538.16;5115346;28;20229;-63
2021/12/17 04:21:03;;;;;;;7.03;6.33;;;;;;;2.58;72.67;95529.81;5117381;28;20264;-63
2021/12/17 04:23:31;;;;;;;6.20;5.60;;;;;;;2.61;72.30;95529.63;5121054;28;20234;-62
2021/12/17 04:25:58;;;;;;;7.93;6.37;;;;;;;2.64;72.39;95528.59;5118663;28;20211;-62
2021/12/17 04:28:23;;;;;;;6.73;6.03;;;;;;;2.63;72.51;95517.38;5120631;28;20223;-62
2021/12/17 04:30:50;;;;;;;6.83;6.13;;;;;;;2.61;73.10;95511.44;5121150;28;20230;-64
2021/12/17 04:33:16;;;;;;;6.70;6.07;;;;;;;2.59;72.91;95509.88;5121259;28;20219;-65
2021/12/17 04:35:42;;;;;;;6.73;6.03;;;;;;;2.67;72.68;95499.03;5118309;28;20210;-65
2021/12/17 04:38:09;;;;;;;8.37;6.70;;;;;;;2.61;72.98;95495.88;5117365;28;20274;-62
2021/12/17 04:40:37;;;;;;;6.63;6.00;;;;;;;2.59;73.58;95495.16;5118088;28;20231;-66
2021/12/17 04:43:36;;;;;;;8.17;6.70;;;;;;;2.56;73.86;95494.47;5147256;27;20250;-64
2021/12/17 04:46:21;;;;;;;7.03;6.17;;;;;;;2.55;73.47;95485.84;5119518;28;20275;-62
2021/12/17 05:00:12;;;;;;;5.90;5.33;;;;;;;2.72;72.95;95489.19;5076280;28;20258;-63
2021/12/17 05:02:43;;;;;;;7.10;6.40;;;;;;;2.69;73.20;95487.63;5075531;28;20266;-65
2021/12/17 05:05:10;;;;;;;6.13;5.37;;;;;;;2.75;73.41;95491.59;5077074;28;20212;-65
2021/12/17 05:07:40;;;;;;;6.63;5.57;;;;;;;2.68;73.65;95493.75;5075412;28;20235;-68
2021/12/17 05:18:18;;;;;;;5.90;5.30;;;;;;;2.72;74.84;95492.63;5082378;28;20227;-66
2021/12/17 05:20:50;;;;;;;6.30;5.63;;;;;;;2.65;75.46;95497.38;5081523;28;20282;-66
2021/12/17 05:23:27;;;;;;;5.97;5.37;;;;;;;2.63;75.66;95488.00;5065714;28;20207;-64
2021/12/17 05:25:53;;;;;;;6.40;5.80;;;;;;;2.65;75.27;95492.16;5082054;28;20215;-65
2021/12/17 05:28:19;;;;;;;7.00;5.70;;;;;;;2.76;75.12;95503.69;5080479;28;20240;-64
2021/12/17 05:30:47;;;;;;;6.67;5.33;;;;;;;2.78;74.86;95499.22;5066379;28;20221;-66
2021/12/17 05:33:19;;;;;;;5.87;5.37;;;;;;;2.78;74.55;95491.41;5073549;28;20273;-65
2021/12/17 05:35:46;;;;;;;5.53;4.97;;;;;;;2.83;74.33;95504.97;5122684;28;20227;-65
2021/12/17 05:38:13;;;;;;;4.97;4.43;;;;;;;2.80;73.91;95495.59;5144579;27;20214;-65
2021/12/17 05:40:40;;;;;;;4.83;4.33;;;;;;;2.83;74.14;95497.16;5119947;28;20227;-65
2021/12/17 05:43:06;;;;;;;6.27;5.17;;;;;;;2.78;74.69;95483.63;5122394;28;20250;-65
2021/12/17 05:46:23;;;;;;;4.97;4.40;;;;;;;2.77;74.32;95481.97;5117932;28;20215;-66
2021/12/17 05:48:23;;;;;;;7.10;5.23;;;;;;;2.83;74.67;95490.22;5114082;28;20223;-65
2021/12/17 05:50:51;;;;;;;5.63;4.77;;;;;;;2.79;75.05;95487.91;5121796;27;20219;-64
2021/12/17 05:53:17;;;;;;;6.30;5.40;;;;;;;2.78;74.88;95483.63;5121228;28;20301;-65
2021/12/17 05:55:43;;;;;;;5.47;4.40;;;;;;;2.87;74.41;95485.69;5123182;27;20219;-64
2021/12/17 05:58:09;;;;;;;6.17;4.60;;;;;;;2.80;74.53;95479.19;5121431;28;20215;-65
2021/12/17 06:00:38;;;;;;;4.90;4.10;;;;;;;2.83;74.61;95485.03;5121772;28;20234;-64
2021/12/17 06:03:04;;;;;;;3.50;3.03;;;;;;;2.95;73.21;95486.03;5120454;28;20230;-62
2021/12/17 06:05:29;;;;;;;3.47;3.00;;;;;;;3.01;72.32;95501.25;5120065;28;20282;-66
2021/12/17 06:07:56;;;;;;;3.70;3.40;;;;;;;3.04;72.66;95497.63;5119076;28;20219;-63
2021/12/17 06:10:22;;;;;;;3.47;3.10;;;;;;;3.06;71.71;95504.41;5122441;28;20321;-65
2021/12/17 06:12:48;;;;;;;2.73;2.40;;;;;;;3.03;70.70;95502.00;5122092;28;20215;-64
2021/12/17 06:15:16;;;;;;;2.50;2.30;;;;;;;3.04;70.15;95513.22;5124072;28;20246;-65
2021/12/17 06:17:42;;;;;;;2.90;2.63;;;;;;;2.98;70.88;95518.78;5123623;28;20195;-62
2021/12/17 06:20:09;;;;;;;2.70;2.40;;;;;;;3.01;70.08;95514.25;5120625;28;20203;-64
2021/12/17 06:22:35;;;;;;;3.00;2.70;;;;;;;3.09;70.28;95514.59;5119887;28;20224;-64
2021/12/17 06:25:01;;;;;;;2.43;2.23;;;;;;;3.13;69.77;95522.19;5121882;28;20291;-64
2021/12/17 06:27:27;;;;;;;2.90;2.60;;;;;;;3.06;70.11;95514.78;5119443;28;20248;-64
2021/12/17 06:29:53;;;;;;;2.70;2.50;;;;;;;3.12;70.11;95517.94;5115258;28;20226;-64
2021/12/17 06:32:20;;;;;;;2.97;2.30;;;;;;;3.13;69.81;95510.06;5122268;28;20192;-67
2021/12/17 06:34:47;;;;;;;2.60;2.40;;;;;;;3.15;69.48;95500.38;5119432;28;20219;-67
2021/12/17 06:37:15;;;;;;;1.87;1.73;;;;;;;3.18;68.98;95497.63;5116605;28;20266;-67
2021/12/17 06:39:41;;;;;;;2.47;2.10;;;;;;;3.09;69.43;95496.41;5118648;28;20222;-66
2021/12/17 06:42:07;;;;;;;2.20;1.60;;;;;;;3.14;70.27;95508.31;5119104;28;20219;-67
2021/12/17 06:44:33;;;;;;;2.60;2.40;;;;;;;3.15;70.03;95512.56;5119050;28;20372;-69
2021/12/17 06:47:10;;;;;;;2.40;2.20;;;;;;;3.18;70.25;95514.97;5121847;28;20191;-69
2021/12/17 07:10:57;;;;;;;3.63;3.33;;;;;;;2.93;73.67;95494.84;5058125;28;20216;-67
2021/12/17 07:40:56;;;;;;;5.33;4.83;;;;;;;2.86;74.63;95484.00;4998365;28;20258;-67
2021/12/17 07:43:26;;;;;;;5.20;4.70;;;;;;;2.88;74.95;95487.34;4997869;28;20243;-66
2021/12/17 07:45:53;;;;;;;5.93;5.20;;;;;;;2.95;74.75;95493.00;4982190;28;20258;-67
2021/12/17 07:48:19;;;;;;;5.20;4.70;;;;;;;2.87;74.81;95490.88;4997766;28;20238;-66
2021/12/17 07:50:45;;;;;;;5.97;5.40;;;;;;;2.87;75.40;95488.28;4998401;28;20231;-68
2021/12/17 07:53:10;;;;;;;6.90;6.20;;;;;;;2.92;75.33;95494.03;4999732;28;20246;-67
2021/12/17 07:55:36;;;;;;;6.50;5.90;;;;;;;2.94;75.72;95492.19;4998728;28;20289;-67
2021/12/17 07:58:02;;;;;;;6.20;5.60;;;;;;;2.87;75.97;95486.50;4998108;28;20223;-67
2021/12/17 08:00:27;;;;;;;6.80;6.20;;;;;;;2.94;76.01;95494.78;4985824;28;20219;-67
2021/12/17 08:02:53;;;;;;;6.43;5.83;;;;;;;2.83;76.80;95495.44;4989587;28;20254;-66
2021/12/17 08:05:19;;;;;;;6.83;6.07;;;;;;;2.80;77.12;95500.78;5058437;28;20200;-67
2021/12/17 08:07:45;;;;;;;7.30;6.50;;;;;;;2.93;76.88;95503.47;5109738;28;20233;-66
2021/12/17 08:10:11;;;;;;;6.83;6.13;;;;;;;2.88;76.91;95511.53;5119523;28;20215;-66
2021/12/17 08:12:37;;;;;;;7.97;6.83;;;;;;;2.90;77.05;95521.03;5120575;27;20257;-66
2021/12/17 08:15:05;;;;;;;7.63;6.83;;;;;;;2.89;77.36;95522.78;5120247;28;20250;-66
2021/12/17 08:25:48;;;;;;;7.67;6.90;;;;;;;2.82;76.86;95508.50;5117234;28;20341;-67
2021/12/17 08:28:15;;;;;;;7.60;6.80;;;;;;;2.84;77.14;95497.09;5120889;28;20273;-68
2021/12/17 08:30:41;;;;;;;7.37;6.77;;;;;;;2.90;76.67;95498.47;5117691;28;20292;-69
2021/12/17 08:33:07;;;;;;;7.20;6.50;;;;;;;3.01;75.91;95493.44;5119319;28;20290;-68
2021/12/17 08:35:34;;;;;;;7.73;6.80;;;;;;;3.05;76.04;95496.72;5122584;28;20260;-71
2021/12/17 08:38:03;;;;;;;7.83;6.50;;;;;;;3.09;76.08;95495.59;5119861;28;20231;-66
2021/12/17 08:40:30;;;;;;;6.77;6.03;;;;;;;3.13;75.57;95489.28;5117413;28;20215;-67
2021/12/17 08:42:56;;;;;;;6.93;6.23;;;;;;;3.11;75.66;95488.53;5119335;28;20238;-66
2021/12/17 08:45:21;;;;;;;6.17;5.57;;;;;;;3.09;75.70;95491.22;5116671;28;20227;-67
2021/12/17 08:47:48;;;;;;;5.63;5.13;;;;;;;3.20;75.16;95476.72;5120678;28;20290;-67
2021/12/17 08:50:15;;;;;;;6.43;5.83;;;;;;;3.17;74.90;95466.53;5125651;28;20270;-67
2021/12/17 08:52:41;;;;;;;5.93;5.43;;;;;;;3.17;74.80;95471.72;5122113;28;20230;-68
2021/12/17 08:55:07;;;;;;;5.47;4.97;;;;;;;3.28;75.00;95469.28;5124246;28;20219;-69
2021/12/17 08:57:33;;;;;;;5.97;5.37;;;;;;;3.26;74.37;95465.94;5123024;28;20245;-67
2021/12/17 09:00:04;;;;;;;5.80;5.20;;;;;;;3.29;73.89;95479.59;5124048;28;20215;-67
2021/12/17 09:02:30;;;;;;;5.47;5.00;;;;;;;3.34;73.80;95468.88;5124430;27;20205;-69
2021/12/17 09:04:55;;;;;;;6.03;5.43;;;;;;;3.32;74.00;95470.78;5120891;28;20203;-67
2021/12/17 09:07:21;;;;;;;5.97;4.97;;;;;;;3.29;74.10;95460.56;5121705;28;20253;-65
2021/12/17 09:09:48;;;;;;;6.13;5.53;;;;;;;3.30;74.09;95459.63;5123368;28;20234;-67
2021/12/17 09:12:13;;;;;;;6.67;6.07;;;;;;;3.30;74.20;95460.47;5123338;28;20230;-67
2021/12/17 09:14:39;;;;;;;7.03;6.33;;;;;;;3.38;73.67;95457.38;5154812;27;20226;-67
2021/12/17 09:17:04;;;;;;;5.63;5.13;;;;;;;3.40;74.02;95455.53;5120856;28;20217;-68
2021/12/17 09:19:31;;;;;;;6.20;5.70;;;;;;;3.42;73.61;95452.81;5121471;28;20219;-68
2021/12/17 09:21:57;;;;;;;5.97;5.37;;;;;;;3.44;73.65;95456.16;5118727;28;20222;-68
2021/12/17 09:24:23;;;;;;;6.57;5.97;;;;;;;3.37;74.29;95452.25;5121175;28;20286;-68
2021/12/17 09:26:50;;;;;;;6.80;6.20;;;;;;;3.45;74.02;95448.28;5119576;28;20266;-69
2021/12/17 09:29:15;;;;;;;7.17;6.57;;;;;;;3.46;74.08;95460.31;5123069;28;20211;-68
2021/12/17 09:31:41;;;;;;;7.43;6.73;;;;;;;3.43;74.18;95444.09;5123569;28;20231;-66
2021/12/17 09:34:06;;;;;;;8.17;7.37;;;;;;;3.52;73.95;95428.72;5120728;28;20235;-67
2021/12/17 09:36:33;;;;;;;7.90;7.23;;;;;;;3.49;74.16;95436.72;5147362;27;20223;-67
2021/12/17 09:38:59;;;;;;;8.77;7.97;;;;;;;3.56;74.43;95431.16;5121257;28;20230;-66
2021/12/17 09:41:26;;;;;;;8.90;8.00;;;;;;;3.69;73.96;95426.81;5121862;28;20192;-68
2021/12/17 09:43:53;;;;;;;8.80;7.90;;;;;;;3.69;74.02;95421.63;5118190;28;20249;-67
2021/12/17 09:46:18;;;;;;;8.77;7.97;;;;;;;3.65;73.89;95417.53;5121474;28;20223;-68
2021/12/17 09:48:47;;;;;;;8.77;7.97;;;;;;;3.71;73.71;95396.31;5122051;28;20231;-69
2021/12/17 09:51:14;;;;;;;9.80;8.90;;;;;;;3.66;73.93;95385.38;5119392;28;20231;-68
2021/12/17 09:53:41;;;;;;;9.17;8.27;;;;;;;3.62;73.92;95400.38;5122305;28;20207;-67
2021/12/17 09:56:07;;;;;;;8.50;7.70;;;;;;;3.59;74.16;95392.78;5123391;28;20282;-65
2021/12/17 09:58:36;;;;;;;8.40;7.60;;;;;;;3.72;73.75;95396.25;5122058;28;20211;-67
2021/12/17 10:01:03;;;;;;;8.60;7.80;;;;;;;3.89;73.62;95391.69;5120048;28;20331;-65
2021/12/17 10:03:29;;;;;;;8.40;7.60;;;;;;;3.83;73.05;95381.69;5119814;28;20219;-68
2021/12/17 10:05:55;;;;;;;8.33;7.63;;;;;;;3.94;73.25;95380.03;5117973;28;20227;-67
2021/12/17 10:08:23;;;;;;;8.00;7.30;;;;;;;4.07;72.28;95385.25;5118425;28;20290;-65
2021/12/17 10:10:58;;;;;;;8.53;7.83;;;;;;;4.02;72.69;95370.91;5121995;28;20298;-67
2021/12/17 10:13:32;;;;;;;9.30;8.40;;;;;;;3.98;73.00;95362.44;5120036;28;20210;-66
2021/12/17 10:16:08;;;;;;;8.67;7.87;;;;;;;4.05;72.74;95360.28;5119560;28;20210;-67
2021/12/17 10:18:35;;;;;;;8.20;7.40;;;;;;;4.02;72.60;95350.91;5120579;28;20214;-65
2021/12/17 10:21:21;;;;;;;8.90;8.10;;;;;;;4.09;72.70;95349.56;5120355;28;20229;-66
2021/12/17 10:23:48;;;;;;;8.77;8.07;;;;;;;4.12;72.38;95330.31;5121640;28;20255;-66
2021/12/17 10:26:15;;;;;;;7.63;6.90;;;;;;;4.05;72.29;95339.47;5119628;28;20192;-66
2021/12/17 10:29:02;;;;;;;7.83;7.13;;;;;;;4.11;71.87;95328.63;5121308;27;20248;-67
2021/12/17 10:31:30;;;;;;;8.00;7.30;;;;;;;4.08;72.06;95321.03;5116108;28;20231;-63
2021/12/17 10:34:03;;;;;;;7.13;6.47;;;;;;;4.02;72.11;95324.06;5119762;28;20219;-66
2021/12/17 10:36:42;;;;;;;7.70;7.00;;;;;;;3.95;72.42;95314.03;5122127;28;20225;-68
2021/12/17 10:39:20;;;;;;;7.07;6.47;;;;;;;4.13;71.98;95311.13;5122265;27;20239;-66
2021/12/17 10:41:47;;;;;;;7.20;6.50;;;;;;;4.17;71.46;95302.16;5118995;28;20246;-68
2021/12/17 10:44:12;;;;;;;6.60;6.00;;;;;;;4.24;70.71;95307.78;5117443;28;20229;-64
2021/12/17 10:46:55;;;;;;;6.00;5.50;;;;;;;4.25;70.33;95286.88;5119915;28;20215;-64
2021/12/17 10:49:24;;;;;;;6.70;6.17;;;;;;;4.14;70.87;95284.16;5121224;28;20223;-66
2021/12/17 10:52:03;;;;;;;5.40;5.00;;;;;;;4.07;71.28;95282.94;5116578;28;20325;-66
2021/12/17 10:54:29;;;;;;;5.93;5.23;;;;;;;4.20;70.82;95286.38;5121342;28;20235;-65
2021/12/17 10:56:55;;;;;;;5.43;4.93;;;;;;;4.26;70.21;95288.53;5123131;28;20227;-65
2021/12/17 10:59:22;;;;;;;5.70;5.20;;;;;;;4.25;70.56;95289.47;5118682;28;20226;-67
2021/12/17 11:01:59;;;;;;;5.60;5.10;;;;;;;4.29;70.70;95293.53;5121209;28;20223;-66
2021/12/17 11:04:28;;;;;;;5.70;5.20;;;;;;;4.23;70.23;95306.97;5119022;28;20230;-64
2021/12/17 11:06:56;;;;;;;5.80;5.30;;;;;;;4.16;71.18;95296.13;5120324;28;20219;-66
2021/12/17 11:09:31;;;;;;;6.10;5.60;;;;;;;4.11;71.26;95306.03;5119770;28;20287;-66
2021/12/17 11:12:01;;;;;;;6.13;5.63;;;;;;;3.98;72.32;95297.38;5121730;28;20249;-67
2021/12/17 11:14:27;;;;;;;6.53;6.00;;;;;;;4.01;72.69;95285.94;5120894;28;20262;-65
2021/12/17 11:16:52;;;;;;;6.90;6.30;;;;;;;4.03;73.29;95292.72;5121363;28;20217;-66
2021/12/17 11:19:18;;;;;;;7.70;7.00;;;;;;;4.00;73.45;95284.28;5121118;28;20211;-64
2021/12/17 11:21:45;;;;;;;7.60;6.73;;;;;;;4.06;73.63;95274.28;5119587;28;20253;-68
2021/12/17 11:24:10;;;;;;;6.43;5.83;;;;;;;3.98;74.03;95274.84;5121658;27;20230;-68
2021/12/17 11:26:36;;;;;;;6.50;5.90;;;;;;;3.91;74.68;95257.16;5120174;28;20203;-67
2021/12/17 11:29:03;;;;;;;6.70;6.10;;;;;;;4.02;74.27;95261.59;5118888;28;20506;-66
2021/12/17 11:31:32;;;;;;;6.20;5.70;;;;;;;4.17;74.00;95250.13;5122267;28;20256;-65
2021/12/17 11:34:00;;;;;;;7.13;6.53;;;;;;;4.26;73.85;95244.28;5119728;28;20337;-65
2021/12/17 11:36:28;;;;;;;6.63;5.93;;;;;;;4.35;73.19;95256.63;5146725;27;20232;-64
2021/12/17 11:39:10;;;;;;;7.07;6.40;;;;;;;4.38;73.46;95239.97;5116389;28;20227;-65
2021/12/17 11:41:41;;;;;;;6.13;5.53;;;;;;;4.25;72.77;95252.19;5120189;28;20199;-67
2021/12/17 11:44:08;;;;;;;5.60;5.10;;;;;;;4.24;73.06;95234.91;5119471;28;20207;-65
2021/12/17 11:46:34;;;;;;;4.90;4.50;;;;;;;4.19;73.24;95232.63;5117749;28;20219;-65
2021/12/17 11:49:09;;;;;;;5.07;4.67;;;;;;;4.25;72.54;95233.97;5119781;28;20219;-64
2021/12/17 11:51:35;;;;;;;5.03;4.63;;;;;;;4.07;72.79;95223.09;5114121;28;20215;-67
2021/12/17 11:54:06;;;;;;;4.53;4.17;;;;;;;4.00;72.41;95232.25;5114621;28;20223;-65
2021/12/17 11:56:52;;;;;;;5.17;4.77;;;;;;;3.92;73.45;95214.56;5118885;27;20265;-66
2021/12/17 11:59:24;;;;;;;5.17;4.67;;;;;;;4.03;73.22;95212.03;5120084;28;20199;-67
2021/12/17 12:01:57;;;;;;;5.00;4.60;;;;;;;3.91;73.07;95212.91;5120962;28;20241;-65
2021/12/17 12:04:34;;;;;;;4.83;4.43;;;;;;;3.82;73.54;95213.53;5119616;28;20253;-65
2021/12/17 12:07:01;;;;;;;4.87;4.37;;;;;;;3.75;73.38;95205.34;5119083;28;20282;-66
2021/12/17 12:09:59;;;;;;;5.03;4.63;;;;;;;3.67;73.47;95210.25;5119161;28;20238;-65
2021/12/17 12:12:33;;;;;;;4.60;4.17;;;;;;;3.62;73.63;95225.31;5118414;27;20219;-65
2021/12/17 12:15:24;;;;;;;4.03;3.73;;;;;;;3.62;73.31;95220.13;5117891;28;20222;-65
2021/12/17 12:18:06;;;;;;;4.80;4.30;;;;;;;3.59;73.30;95192.56;5121646;28;20219;-65
2021/12/17 12:23:32;;;;;;;4.53;4.07;;;;;;;3.63;72.80;95208.78;5119941;28;20210;-66
2021/12/17 12:26:04;;;;;;;4.33;3.93;;;;;;;3.54;72.44;95195.47;5057557;28;20278;-65
2021/12/17 12:28:45;;;;;;;5.03;4.63;;;;;;;3.63;72.07;95199.19;5062965;28;20224;-65
2021/12/17 12:31:19;;;;;;;4.80;4.30;;;;;;;3.65;71.46;95212.09;5077381;28;20239;-64
2021/12/17 12:34:12;;;;;;;4.67;4.27;;;;;;;3.69;70.91;95178.00;5076744;28;20211;-66
2021/12/17 12:36:53;;;;;;;5.13;4.67;;;;;;;3.68;70.07;95176.31;5076315;28;20302;-65
2021/12/17 12:39:30;;;;;;;5.37;4.70;;;;;;;3.66;70.43;95178.22;5061452;28;20212;-65
2021/12/17 12:41:55;;;;;;;4.60;4.20;;;;;;;3.69;69.81;95183.19;5079868;28;20224;-65
2021/12/17 12:44:47;;;;;;;5.00;4.50;;;;;;;3.80;69.02;95172.03;5075882;28;20228;-63
2021/12/17 12:47:35;;;;;;;5.27;4.73;;;;;;;3.77;69.19;95174.88;5074559;28;20216;-64
2021/12/17 12:50:10;;;;;;;4.97;4.57;;;;;;;3.76;68.64;95162.78;5091234;28;20228;-66
2021/12/17 12:52:44;;;;;;;5.33;4.83;;;;;;;3.74;68.24;95168.09;5074999;28;20222;-66
2021/12/17 12:55:27;;;;;;;4.33;3.93;;;;;;;3.64;67.99;95169.69;5061305;28;20246;-66
2021/12/17 12:57:52;;;;;;;4.30;3.87;;;;;;;3.68;67.15;95168.50;5062126;28;20241;-65
2021/12/17 13:00:27;;;;;;;4.07;3.70;;;;;;;3.57;67.42;95168.41;5079284;28;20287;-64
2021/12/17 13:03:05;;;;;;;3.80;3.50;;;;;;;3.56;67.33;95171.16;5085483;28;20214;-64
2021/12/17 13:05:32;;;;;;;3.40;3.10;;;;;;;3.56;66.88;95165.94;5142273;27;20195;-64
2021/12/17 13:08:00;;;;;;;4.40;3.70;;;;;;;3.60;66.63;95157.81;5118735;28;20207;-66
2021/12/17 13:10:30;;;;;;;4.13;3.60;;;;;;;3.63;66.75;95157.59;5119037;28;20286;-65
2021/12/17 13:13:17;;;;;;;3.47;3.17;;;;;;;3.70;65.89;95165.81;5119154;28;21238;-65
2021/12/17 13:16:21;;;;;;;3.27;3.07;;;;;;;3.65;66.18;95191.31;5120689;28;20223;-66
2021/12/17 13:24:16;;;;;;;3.57;2.73;;;;;;;3.63;65.97;95165.38;5117368;27;20275;-65
2021/12/17 13:26:43;;;;;;;3.40;3.10;;;;;;;3.59;66.05;95165.72;5121043;28;20286;-65
2021/12/17 13:29:19;;;;;;;2.97;2.73;;;;;;;3.59;65.91;95176.13;5117794;28;20261;-66
2021/12/17 13:31:57;;;;;;;3.30;3.00;;;;;;;3.52;65.78;95165.31;5120728;28;20223;-65
2021/12/17 13:34:35;;;;;;;3.03;2.83;;;;;;;3.52;64.86;95170.50;5120123;28;20214;-65
2021/12/17 13:37:04;;;;;;;2.90;2.70;;;;;;;3.44;64.68;95171.03;5123241;28;20239;-65
2021/12/17 13:39:33;;;;;;;3.10;2.90;;;;;;;3.46;64.94;95161.38;5122898;28;20278;-63
2021/12/17 13:41:59;;;;;;;3.10;2.80;;;;;;;3.45;65.34;95154.50;5122221;28;20298;-65
2021/12/17 13:44:28;;;;;;;3.60;3.30;;;;;;;3.51;64.60;95171.44;5124875;28;20289;-70
2021/12/17 13:47:07;;;;;;;4.63;4.23;;;;;;;3.57;64.12;95157.19;5121240;28;20215;-63
2021/12/17 13:49:32;;;;;;;4.00;3.70;;;;;;;3.53;63.86;95162.63;5124210;28;20238;-63
2021/12/17 13:51:58;;;;;;;4.20;3.90;;;;;;;3.42;64.16;95157.31;5122328;28;20227;-65
2021/12/17 13:54:24;;;;;;;4.20;3.80;;;;;;;3.55;64.09;95170.28;5119195;28;20246;-65
2021/12/17 13:57:11;;;;;;;4.83;4.33;;;;;;;3.59;63.61;95163.13;5118982;28;20215;-65
2021/12/17 13:59:37;;;;;;;4.17;3.87;;;;;;;3.48;63.25;95167.28;5118341;27;20188;-65
2021/12/17 14:02:15;;;;;;;4.20;3.70;;;;;;;3.39;63.63;95146.28;5123116;28;20232;-63
2021/12/17 14:04:42;;;;;;;4.10;3.67;;;;;;;3.47;63.33;95142.22;5122898;28;20223;-62
2021/12/17 14:07:09;;;;;;;4.27;3.70;;;;;;;3.46;63.12;95130.16;5122507;28;20230;-65
2021/12/17 14:09:35;;;;;;;3.30;3.00;;;;;;;3.42;62.87;95139.13;5138662;27;20229;-65
2021/12/17 14:12:23;;;;;;;3.13;2.83;;;;;;;3.44;62.83;95144.19;5122121;28;20242;-65
2021/12/17 14:15:04;;;;;;;2.73;2.53;;;;;;;3.41;63.07;95145.25;5118719;28;20222;-64
2021/12/17 14:17:45;;;;;;;3.00;2.73;;;;;;;3.38;63.25;95137.66;5115108;28;20198;-64
2021/12/17 14:20:20;;;;;;;3.47;3.17;;;;;;;3.38;63.27;95137.66;5119511;28;20218;-65
2021/12/17 14:22:48;;;;;;;3.57;3.27;;;;;;;3.43;62.80;95168.53;5120919;28;20226;-66
2021/12/17 14:25:26;;;;;;;4.53;3.90;;;;;;;3.44;63.37;95168.44;5122256;28;20234;-66
2021/12/17 14:27:53;;;;;;;4.40;3.53;;;;;;;3.37;63.50;95151.59;5121509;28;20237;-65
2021/12/17 14:30:24;;;;;;;3.87;3.50;;;;;;;3.37;63.04;95172.41;5121581;28;20238;-67
2021/12/17 14:32:51;;;;;;;3.70;3.40;;;;;;;3.38;63.12;95205.25;5117547;28;20229;-68
2021/12/17 14:35:42;;;;;;;4.33;3.93;;;;;;;3.37;62.87;95177.59;5119574;28;20196;-65
2021/12/17 14:38:07;;;;;;;3.97;3.57;;;;;;;3.40;63.59;95174.78;5120532;28;20231;-68
2021/12/17 14:40:42;;;;;;;4.10;3.70;;;;;;;3.46;63.85;95183.94;5121411;28;20326;-63
2021/12/17 14:43:36;;;;;;;4.30;3.90;;;;;;;3.36;64.55;95195.88;5122865;28;20222;-64
2021/12/17 14:46:24;;;;;;;4.20;3.80;;;;;;;3.21;65.04;95176.97;5080954;28;20237;-64
2021/12/17 14:58:02;;;;;;;3.80;3.50;;;;;;;3.11;65.24;95183.72;5081061;28;20247;-64
2021/12/17 15:05:33;;;;;;;4.73;4.33;;;;;;;3.00;65.82;95206.03;5079813;28;20261;-64
2021/12/17 15:08:01;;;;;;;4.87;4.47;;;;;;;2.88;66.12;95193.84;5079589;28;20209;-64